Time;durP1;ratioP1;P1;durP2;ratioP2;P2;SDS_P1;SDS_P2;PMS_P1;PMS_P2;Temp;Humidity;BMP_temperature;BMP_pressure;BME280_temperature;BME280_humidity;BME280_pressure;Samples;Min_cycle;Max_cycle;Signal;HPM_P1;HPM_P2
2024/02/21 00:05:51;;;;;;;14.40;4.93;;;;;;;8.25;67.13;97639.91;5837864;23;20063;-80
2024/02/21 00:08:18;;;;;;;8.90;4.72;;;;;;;8.28;69.20;97630.19;4926585;29;20311;-80
2024/02/21 00:10:46;;;;;;;7.82;4.13;;;;;;;8.33;68.68;97638.38;4923135;29;20111;-80
2024/02/21 00:13:14;;;;;;;12.75;5.22;;;;;;;8.30;66.61;97634.28;4922093;29;20062;-80
2024/02/21 00:15:41;;;;;;;9.55;4.00;;;;;;;8.32;70.35;97636.75;4922461;29;20444;-80
2024/02/21 00:18:10;;;;;;;7.68;4.57;;;;;;;8.34;70.47;97634.84;4935743;23;20056;-77
2024/02/21 00:20:38;;;;;;;8.55;4.05;;;;;;;8.32;67.43;97627.16;4936658;29;20142;-80
2024/02/21 00:23:07;;;;;;;11.38;4.97;;;;;;;8.28;68.40;97628.41;4935183;29;20052;-83
2024/02/21 00:25:35;;;;;;;14.55;4.20;;;;;;;8.23;66.53;97623.66;4934853;29;20123;-81
2024/02/21 00:28:03;;;;;;;7.68;4.65;;;;;;;8.22;69.33;97621.19;4935050;29;20116;-81
2024/02/21 00:30:30;;;;;;;10.05;4.38;;;;;;;8.24;70.55;97624.44;4935564;29;20048;-82
2024/02/21 00:32:58;;;;;;;8.40;4.28;;;;;;;8.26;71.20;97630.34;4936158;29;20052;-81
2024/02/21 00:35:26;;;;;;;14.02;5.00;;;;;;;8.33;71.80;97622.78;4934950;29;20063;-82
2024/02/21 00:37:54;;;;;;;9.18;4.22;;;;;;;8.35;68.45;97626.06;4934412;29;20131;-82
2024/02/21 00:40:23;;;;;;;7.47;3.55;;;;;;;8.36;69.43;97627.72;4935233;29;20508;-81
2024/02/21 00:42:50;;;;;;;10.85;4.30;;;;;;;8.37;71.79;97624.16;4934762;29;20096;-82
2024/02/21 00:45:18;;;;;;;11.82;5.18;;;;;;;8.38;70.47;97620.59;4936365;29;20072;-82
2024/02/21 00:47:46;;;;;;;10.20;4.32;;;;;;;8.35;71.84;97620.88;4936589;29;20052;-82
2024/02/21 00:50:14;;;;;;;11.02;4.53;;;;;;;8.30;69.93;97615.28;4935242;29;20059;-81
2024/02/21 00:52:42;;;;;;;8.95;4.82;;;;;;;8.25;71.45;97606.13;4933874;29;20087;-81
2024/02/21 00:55:10;;;;;;;11.23;5.03;;;;;;;8.28;72.20;97606.81;4933498;29;20056;-81
2024/02/21 00:57:39;;;;;;;13.93;5.13;;;;;;;8.31;70.72;97602.16;4934624;29;20060;-81
2024/02/21 01:00:08;;;;;;;10.07;4.85;;;;;;;8.33;68.85;97596.78;4935353;29;20080;-83
2024/02/21 01:02:35;;;;;;;7.30;4.93;;;;;;;8.33;71.29;97591.59;4933022;29;20062;-82
2024/02/21 01:05:03;;;;;;;8.50;4.40;;;;;;;8.32;71.56;97603.78;4932241;29;20044;-83
2024/02/21 01:07:31;;;;;;;12.73;4.95;;;;;;;8.28;68.68;97588.59;4933323;29;20406;-82
2024/02/21 01:09:59;;;;;;;10.52;5.40;;;;;;;8.17;67.71;97581.81;4933653;29;20044;-83
2024/02/21 01:12:26;;;;;;;8.50;4.82;;;;;;;8.16;70.70;97573.19;4935444;29;20048;-82
2024/02/21 01:14:55;;;;;;;7.90;4.05;;;;;;;8.15;69.46;97574.13;4935745;29;20067;-81
2024/02/21 01:17:23;;;;;;;9.52;4.30;;;;;;;8.17;71.59;97574.00;4935142;29;20083;-82
2024/02/21 01:19:51;;;;;;;8.73;4.45;;;;;;;8.16;69.74;97575.78;4935045;29;20059;-81
2024/02/21 01:22:18;;;;;;;10.07;4.75;;;;;;;8.18;71.88;97571.28;4934877;29;20063;-82
2024/02/21 01:24:46;;;;;;;10.82;4.70;;;;;;;8.21;72.87;97572.75;4937971;29;20080;-82
2024/02/21 01:27:14;;;;;;;15.38;6.40;;;;;;;8.18;70.43;97557.47;4939175;29;20048;-82
2024/02/21 01:29:41;;;;;;;15.52;5.28;;;;;;;8.06;68.12;97562.00;4936637;29;20051;-82
2024/02/21 01:32:10;;;;;;;12.35;5.70;;;;;;;7.96;67.07;97558.63;4939132;29;20048;-83
2024/02/21 01:34:38;;;;;;;10.10;4.75;;;;;;;7.89;67.04;97553.16;4938535;29;20048;-81
2024/02/21 01:37:07;;;;;;;11.63;4.78;;;;;;;7.83;66.87;97549.38;4938968;29;20283;-82
2024/02/21 01:39:35;;;;;;;13.32;4.50;;;;;;;7.80;66.50;97547.03;4937611;29;20063;-82
2024/02/21 01:42:02;;;;;;;9.57;4.32;;;;;;;7.74;66.10;97536.38;4937877;29;20063;-81
2024/02/21 01:44:30;;;;;;;8.82;3.95;;;;;;;7.69;66.21;97529.03;4933515;29;20048;-81
2024/02/21 01:46:58;;;;;;;8.27;4.05;;;;;;;7.67;66.29;97528.34;4933950;29;20115;-81
2024/02/21 01:49:27;;;;;;;11.52;4.65;;;;;;;7.66;65.49;97523.31;4933985;29;20111;-82
2024/02/21 01:51:55;;;;;;;9.85;3.88;;;;;;;7.61;65.90;97513.34;4934182;29;20052;-82
2024/02/21 01:54:23;;;;;;;10.48;4.00;;;;;;;7.60;66.08;97514.28;4934625;29;20076;-81
2024/02/21 01:56:52;;;;;;;8.23;3.90;;;;;;;7.59;65.47;97510.88;4934596;29;20060;-82
2024/02/21 01:59:20;;;;;;;11.30;4.35;;;;;;;7.56;65.53;97510.34;4937479;29;20059;-81
2024/02/21 02:01:48;;;;;;;10.85;4.00;;;;;;;7.57;65.47;97514.59;4937327;29;20157;-82
2024/02/21 02:04:15;;;;;;;6.32;3.42;;;;;;;7.62;67.34;97513.19;4936055;29;20058;-82
2024/02/21 02:06:44;;;;;;;7.85;3.47;;;;;;;7.71;67.40;97514.13;4927672;29;20059;-82
2024/02/21 02:09:12;;;;;;;11.60;4.35;;;;;;;7.79;66.27;97510.84;4931775;29;20436;-82
2024/02/21 02:11:40;;;;;;;11.35;4.40;;;;;;;7.78;66.35;97502.22;4935199;29;20432;-81
2024/02/21 02:14:08;;;;;;;9.95;4.07;;;;;;;7.78;65.53;97494.44;4934407;29;20112;-82
2024/02/21 02:16:35;;;;;;;9.85;4.15;;;;;;;7.79;66.21;97501.25;4934764;29;20072;-82
2024/02/21 02:19:03;;;;;;;5.97;3.53;;;;;;;7.82;67.00;97495.75;4934337;29;20047;-81
2024/02/21 02:21:35;;;;;;;10.07;3.97;;;;;;;7.82;65.09;97490.56;4935980;29;20092;-81
2024/02/21 02:24:05;;;;;;;9.35;3.58;;;;;;;7.89;68.39;97484.81;4934967;29;20115;-82
2024/02/21 02:26:33;;;;;;;12.75;4.18;;;;;;;7.95;66.75;97485.06;4932736;29;20044;-82
2024/02/21 02:29:02;;;;;;;9.00;3.67;;;;;;;7.99;68.81;97481.22;4929250;29;20104;-82
2024/02/21 02:31:30;;;;;;;8.98;3.70;;;;;;;8.01;66.78;97479.28;4917460;29;20045;-82
2024/02/21 02:33:57;;;;;;;5.25;3.15;;;;;;;8.04;67.52;97470.38;4918237;29;20075;-82
2024/02/21 02:36:25;;;;;;;8.15;4.15;;;;;;;8.10;69.49;97467.22;4932419;29;20048;-81
2024/02/21 02:38:53;;;;;;;6.75;3.05;;;;;;;8.09;66.26;97464.75;4935972;29;20060;-80
2024/02/21 02:41:22;;;;;;;5.43;3.05;;;;;;;8.05;66.75;97465.06;4930360;29;20063;-80
2024/02/21 02:43:50;;;;;;;8.68;4.03;;;;;;;8.04;65.70;97457.41;4932094;29;20082;-82
2024/02/21 02:46:17;;;;;;;9.65;3.38;;;;;;;8.03;64.91;97458.38;4918917;29;20060;-82
2024/02/21 02:48:46;;;;;;;5.32;2.72;;;;;;;7.98;65.66;97447.56;4932671;29;20048;-82
2024/02/21 02:51:13;;;;;;;6.85;3.40;;;;;;;7.97;65.27;97451.16;4925594;29;20485;-81
2024/02/21 02:53:41;;;;;;;6.47;3.03;;;;;;;7.95;65.64;97448.69;4918650;29;20079;-81
2024/02/21 02:56:14;;;;;;;13.93;3.58;;;;;;;7.94;65.12;97441.88;4917832;29;20140;-82
2024/02/21 02:58:43;;;;;;;5.88;2.95;;;;;;;7.96;66.02;97444.31;4917670;29;20088;-82
2024/02/21 03:01:11;;;;;;;9.15;3.28;;;;;;;7.94;65.19;97447.06;4917758;29;20517;-82
2024/02/21 03:03:38;;;;;;;9.80;3.28;;;;;;;7.92;65.14;97443.78;4917711;29;20484;-82
2024/02/21 03:06:06;;;;;;;13.75;4.22;;;;;;;7.92;65.06;97440.38;4918495;29;20493;-83
2024/02/21 03:08:34;;;;;;;9.70;3.30;;;;;;;7.91;64.85;97436.13;4917982;29;20052;-82
2024/02/21 03:11:02;;;;;;;13.20;4.22;;;;;;;7.89;64.73;97435.44;4918201;29;20087;-82
2024/02/21 03:13:29;;;;;;;7.75;2.53;;;;;;;7.87;64.79;97439.97;4918335;29;20044;-81
2024/02/21 03:15:59;;;;;;;8.27;2.85;;;;;;;7.84;64.73;97434.09;4918280;29;20509;-82
2024/02/21 03:18:26;;;;;;;10.82;3.33;;;;;;;7.82;64.87;97427.41;4918206;29;20052;-82
2024/02/21 03:20:54;;;;;;;10.05;3.15;;;;;;;7.81;64.87;97426.59;4918425;29;20099;-83
2024/02/21 03:23:21;;;;;;;10.60;2.92;;;;;;;7.81;64.90;97425.78;4917426;29;20140;-82
2024/02/21 03:25:49;;;;;;;7.63;3.20;;;;;;;7.81;64.72;97421.41;4916438;29;20147;-81
2024/02/21 03:28:17;;;;;;;11.85;3.00;;;;;;;7.80;64.57;97403.38;4915962;29;20548;-82
2024/02/21 03:30:45;;;;;;;8.85;3.47;;;;;;;7.77;64.82;97412.28;4916071;29;20079;-82
2024/02/21 03:33:14;;;;;;;6.25;2.55;;;;;;;7.75;65.04;97415.97;4915868;29;20071;-82
2024/02/21 03:35:42;;;;;;;10.90;4.07;;;;;;;7.73;65.09;97416.13;4915521;29;20074;-82
2024/02/21 03:38:09;;;;;;;7.90;3.45;;;;;;;7.74;65.33;97415.16;4915446;29;20142;-82
2024/02/21 03:40:37;;;;;;;7.90;3.67;;;;;;;7.75;65.42;97415.97;4917682;29;20056;-81
2024/02/21 03:43:04;;;;;;;9.98;3.65;;;;;;;7.75;65.46;97405.59;4917322;29;20080;-82
2024/02/21 03:45:32;;;;;;;9.02;4.82;;;;;;;7.75;65.57;97409.00;4917436;29;20058;-82
2024/02/21 03:48:03;;;;;;;9.02;4.50;;;;;;;7.76;65.73;97389.88;4917210;29;20143;-82
2024/02/21 03:50:32;;;;;;;9.07;4.30;;;;;;;7.73;65.58;97384.94;4917269;29;20131;-82
2024/02/21 03:52:59;;;;;;;14.93;4.55;;;;;;;7.70;65.94;97382.66;4917296;29;20063;-82
2024/02/21 03:55:27;;;;;;;9.90;3.67;;;;;;;7.67;67.73;97377.72;4916983;29;20505;-82
2024/02/21 03:57:55;;;;;;;12.52;3.70;;;;;;;7.64;66.98;97376.25;4920385;29;20079;-82
2024/02/21 04:00:23;;;;;;;8.45;2.95;;;;;;;7.54;67.77;97382.44;4920595;29;20048;-82
2024/02/21 04:02:50;;;;;;;8.20;3.17;;;;;;;7.49;67.74;97376.88;4916943;29;20087;-82
2024/02/21 04:05:18;;;;;;;8.35;3.95;;;;;;;7.43;67.54;97376.50;4916877;29;20425;-82
2024/02/21 04:07:47;;;;;;;8.82;3.05;;;;;;;7.34;67.51;97382.50;4917531;29;20044;-82
2024/02/21 04:10:14;;;;;;;7.65;2.53;;;;;;;7.30;67.66;97377.75;4917193;29;20052;-82
2024/02/21 04:12:42;;;;;;;7.28;2.60;;;;;;;7.25;67.94;97369.59;4917235;29;20134;-83
2024/02/21 04:15:10;;;;;;;11.57;2.90;;;;;;;7.23;67.94;97364.53;4917023;29;20111;-82
2024/02/21 04:17:37;;;;;;;7.88;2.90;;;;;;;7.22;67.49;97368.09;4917063;29;20047;-82
2024/02/21 04:20:08;;;;;;;7.15;2.88;;;;;;;7.21;67.52;97376.81;4916792;29;20056;-82
2024/02/21 04:22:36;;;;;;;8.55;3.10;;;;;;;7.20;67.71;97375.19;4916818;29;20052;-82
2024/02/21 04:25:06;;;;;;;7.88;2.55;;;;;;;7.23;67.85;97385.28;4916510;29;20052;-81
2024/02/21 04:27:34;;;;;;;8.07;2.72;;;;;;;7.23;68.02;97380.91;4916785;29;20144;-82
2024/02/21 04:30:01;;;;;;;10.88;2.70;;;;;;;7.26;68.63;97374.63;4916641;29;20113;-82
2024/02/21 04:32:29;;;;;;;6.32;2.60;;;;;;;7.34;69.97;97361.75;4916560;29;20143;-82
2024/02/21 04:34:56;;;;;;;6.13;2.60;;;;;;;7.38;70.88;97360.50;4916459;29;20075;-82
2024/02/21 04:37:24;;;;;;;4.82;2.33;;;;;;;7.42;69.60;97359.25;4916714;29;20131;-82
2024/02/21 04:39:52;;;;;;;7.40;2.67;;;;;;;7.39;68.66;97366.50;4916462;29;20048;-82
2024/02/21 04:42:21;;;;;;;4.40;2.50;;;;;;;7.34;68.54;97364.34;4916424;29;20087;-82
2024/02/21 04:44:48;;;;;;;8.73;2.60;;;;;;;7.37;69.10;97361.47;4916248;29;20135;-82
2024/02/21 04:47:16;;;;;;;13.98;3.50;;;;;;;7.38;68.51;97362.28;4916645;29;20131;-81
2024/02/21 04:49:44;;;;;;;5.25;2.42;;;;;;;7.39;69.25;97354.38;4922999;29;20048;-80
2024/02/21 04:52:11;;;;;;;10.73;3.35;;;;;;;7.38;69.21;97355.31;4924353;29;20112;-82
2024/02/21 04:54:39;;;;;;;14.85;4.78;;;;;;;7.35;69.81;97342.63;4916081;29;20048;-82
2024/02/21 04:57:07;;;;;;;6.85;3.03;;;;;;;7.29;69.09;97343.19;4916176;29;20088;-82
2024/02/21 04:59:36;;;;;;;14.52;3.42;;;;;;;7.23;68.87;97333.38;4915826;29;20052;-82
2024/02/21 05:02:04;;;;;;;9.80;3.58;;;;;;;7.21;69.33;97323.16;4916391;29;20056;-82
2024/02/21 05:04:31;;;;;;;11.85;3.75;;;;;;;7.14;69.21;97316.09;4916295;29;20059;-82
2024/02/21 05:07:01;;;;;;;8.27;3.90;;;;;;;7.08;70.00;97308.84;4916460;29;20427;-82
2024/02/21 05:09:28;;;;;;;8.07;3.25;;;;;;;7.07;69.31;97302.06;4916262;29;20060;-81
2024/02/21 05:11:56;;;;;;;12.43;4.40;;;;;;;7.04;69.11;97307.50;4916635;29;20148;-82
2024/02/21 05:14:23;;;;;;;7.47;4.45;;;;;;;6.95;69.07;97304.00;4916223;29;20139;-82
2024/02/21 05:16:52;;;;;;;9.35;4.63;;;;;;;6.85;69.20;97304.03;4916102;29;20084;-82
2024/02/21 05:19:20;;;;;;;9.60;4.90;;;;;;;6.82;69.28;97304.28;4915982;29;20054;-82
2024/02/21 05:21:48;;;;;;;11.95;4.35;;;;;;;6.82;69.23;97309.47;4916070;29;20052;-82
2024/02/21 05:24:15;;;;;;;10.25;4.13;;;;;;;6.81;69.36;97313.84;4915826;29;20128;-82
2024/02/21 05:26:43;;;;;;;10.80;3.95;;;;;;;6.77;68.83;97306.50;4916583;29;20526;-82
2024/02/21 05:29:10;;;;;;;10.18;5.13;;;;;;;6.73;70.29;97305.13;4916952;29;20134;-82
2024/02/21 05:31:58;;;;;;;10.55;4.78;;;;;;;6.70;69.70;97308.03;4908185;29;20147;-82
2024/02/21 05:34:26;;;;;;;12.07;4.47;;;;;;;6.65;69.67;97313.63;4914780;29;20102;-82
2024/02/21 05:36:54;;;;;;;9.23;4.20;;;;;;;6.64;69.70;97308.56;4915856;29;20054;-82
2024/02/21 05:39:22;;;;;;;11.60;5.13;;;;;;;6.63;69.70;97299.19;4915610;29;20083;-82
2024/02/21 05:41:51;;;;;;;17.00;7.65;;;;;;;6.64;69.64;97305.97;4906112;29;20103;-82
2024/02/21 05:44:19;;;;;;;15.85;6.68;;;;;;;6.60;70.12;97311.47;4897051;29;20084;-82
2024/02/21 05:46:47;;;;;;;11.65;5.50;;;;;;;6.64;70.33;97308.56;4897433;29;20091;-80
2024/02/21 05:49:16;;;;;;;8.65;3.72;;;;;;;6.69;70.68;97311.56;4897190;29;20056;-82
2024/02/21 05:51:44;;;;;;;13.38;5.05;;;;;;;6.71;69.64;97312.25;4916882;29;20056;-82
2024/02/21 05:54:11;;;;;;;9.65;3.92;;;;;;;6.67;69.82;97305.69;4923942;29;20458;-82
2024/02/21 05:56:39;;;;;;;11.85;4.78;;;;;;;6.69;70.63;97308.97;4916350;29;20420;-82
2024/02/21 05:59:06;;;;;;;7.53;4.60;;;;;;;6.75;70.34;97309.22;4918240;29;20134;-82
2024/02/21 06:01:34;;;;;;;7.38;3.65;;;;;;;6.78;71.70;97303.78;4926345;29;20085;-81
2024/02/21 06:04:02;;;;;;;7.55;4.25;;;;;;;6.81;71.00;97292.28;4917691;29;20063;-81
2024/02/21 06:06:31;;;;;;;13.32;5.30;;;;;;;6.76;69.72;97294.50;4903535;29;20461;-82
2024/02/21 06:08:59;;;;;;;8.98;4.97;;;;;;;6.69;69.85;97293.41;4899559;29;20140;-81
2024/02/21 06:11:26;;;;;;;12.45;6.28;;;;;;;6.63;69.97;97294.81;4899763;29;20144;-81
2024/02/21 06:13:54;;;;;;;16.98;7.20;;;;;;;6.58;70.44;97299.56;4902569;29;20067;-81
2024/02/21 06:16:22;;;;;;;13.60;6.13;;;;;;;6.54;70.02;97296.47;4909981;29;20055;-81
2024/02/21 06:18:50;;;;;;;17.10;6.80;;;;;;;6.51;69.80;97280.34;4926447;23;20059;-79
2024/02/21 06:21:18;;;;;;;12.95;7.00;;;;;;;6.45;69.49;97284.34;4940112;28;20103;-80
2024/02/21 06:23:47;;;;;;;12.38;6.05;;;;;;;6.36;69.63;97292.91;4942509;29;20048;-81
2024/02/21 06:26:14;;;;;;;12.57;6.30;;;;;;;6.28;69.62;97292.81;4941613;29;20048;-81
2024/02/21 06:28:42;;;;;;;11.48;5.57;;;;;;;6.22;69.89;97286.41;4937640;29;20055;-81
2024/02/21 06:31:10;;;;;;;12.40;6.05;;;;;;;6.15;69.90;97280.13;4932068;29;20060;-81
2024/02/21 06:33:38;;;;;;;12.38;5.30;;;;;;;6.11;70.02;97274.41;4924542;29;20056;-81
2024/02/21 06:36:06;;;;;;;12.23;4.18;;;;;;;6.10;69.71;97277.13;4921459;29;20053;-80
2024/02/21 06:38:34;;;;;;;14.02;5.82;;;;;;;6.06;69.68;97283.56;4932395;29;20056;-81
2024/02/21 06:41:04;;;;;;;11.57;4.75;;;;;;;6.02;70.11;97275.22;4930542;29;20049;-79
2024/02/21 06:43:31;;;;;;;10.05;4.70;;;;;;;6.00;70.29;97271.13;4919352;29;20052;-76
2024/02/21 06:46:00;;;;;;;10.32;4.30;;;;;;;5.94;70.98;97275.03;4904302;29;20048;-81
2024/02/21 06:48:28;;;;;;;8.65;3.80;;;;;;;5.95;70.83;97276.72;4923721;29;20040;-79
2024/02/21 06:50:56;;;;;;;10.10;4.50;;;;;;;6.01;70.64;97277.94;4922329;29;20056;-79
2024/02/21 06:53:23;;;;;;;8.50;3.42;;;;;;;6.02;70.17;97270.03;4929158;29;20060;-80
2024/02/21 06:55:51;;;;;;;7.22;3.35;;;;;;;6.04;69.97;97273.31;4940605;29;20048;-80
2024/02/21 06:58:20;;;;;;;7.50;3.83;;;;;;;6.06;69.83;97271.41;4938646;29;20076;-80
2024/02/21 07:00:48;;;;;;;7.75;3.83;;;;;;;6.10;70.14;97272.78;4931361;29;20051;-81
2024/02/21 07:03:15;;;;;;;8.05;4.40;;;;;;;6.17;69.88;97263.50;4911427;29;20064;-81
2024/02/21 07:05:43;;;;;;;8.65;3.88;;;;;;;6.23;69.57;97272.50;4931609;29;20100;-80
2024/02/21 07:08:11;;;;;;;8.07;4.13;;;;;;;6.32;69.62;97282.03;4933231;29;20063;-80
2024/02/21 07:10:38;;;;;;;9.43;3.83;;;;;;;6.42;69.74;97279.41;4931491;29;20052;-80
2024/02/21 07:13:06;;;;;;;7.55;3.75;;;;;;;6.52;69.51;97269.84;4932341;29;20086;-80
2024/02/21 07:15:36;;;;;;;7.97;4.63;;;;;;;6.67;71.21;97269.41;4927044;29;20075;-80
2024/02/21 07:18:04;;;;;;;9.90;5.20;;;;;;;6.79;69.57;97268.28;4917989;29;20048;-80
2024/02/21 07:20:33;;;;;;;12.45;4.57;;;;;;;6.89;69.19;97271.66;4929945;29;20078;-80
2024/02/21 07:23:01;;;;;;;9.15;4.00;;;;;;;6.99;68.53;97269.84;4930503;29;20071;-80
2024/02/21 07:25:28;;;;;;;10.35;3.95;;;;;;;7.10;68.17;97266.25;4928044;29;20129;-81
2024/02/21 07:27:56;;;;;;;9.40;4.78;;;;;;;7.22;67.81;97253.91;4936191;29;20135;-80
2024/02/21 07:30:24;;;;;;;10.27;4.38;;;;;;;7.35;68.37;97254.38;4931609;29;20402;-80
2024/02/21 07:32:53;;;;;;;11.85;4.40;;;;;;;7.52;68.00;97257.16;4907333;29;20100;-80
2024/02/21 07:35:21;;;;;;;9.88;3.47;;;;;;;7.63;68.53;97256.94;4933547;29;20060;-81
2024/02/21 07:37:49;;;;;;;6.40;4.13;;;;;;;7.77;67.21;97259.03;4941598;29;20044;-80
2024/02/21 07:40:18;;;;;;;9.55;4.20;;;;;;;7.83;66.12;97253.25;4924878;29;20104;-79
2024/02/21 07:42:45;;;;;;;7.43;3.97;;;;;;;7.89;65.63;97249.22;4933050;29;20055;-80
2024/02/21 07:45:21;;;;;;;8.27;3.67;;;;;;;7.93;65.04;97241.97;4931205;29;20049;-81
2024/02/21 07:47:49;;;;;;;12.15;4.50;;;;;;;7.97;64.70;97248.50;4931467;29;20048;-81
2024/02/21 07:50:18;;;;;;;10.07;4.50;;;;;;;7.98;64.46;97231.94;4932338;29;20048;-80
2024/02/21 07:52:46;;;;;;;8.13;3.90;;;;;;;7.99;64.33;97228.38;4928072;29;20107;-80
2024/02/21 07:55:13;;;;;;;10.38;4.13;;;;;;;8.02;64.29;97220.28;4914729;29;20131;-80
2024/02/21 07:57:42;;;;;;;6.80;3.65;;;;;;;8.09;64.35;97226.53;4915690;29;20060;-80
2024/02/21 08:00:14;;;;;;;11.43;4.03;;;;;;;8.15;64.04;97220.72;4918910;29;20091;-81
2024/02/21 08:02:43;;;;;;;10.05;3.45;;;;;;;8.28;65.80;97219.50;4921895;29;20044;-79
2024/02/21 08:05:12;;;;;;;6.82;3.67;;;;;;;8.36;63.91;97222.16;4940172;29;20119;-80
2024/02/21 08:07:41;;;;;;;6.97;3.38;;;;;;;8.41;62.74;97217.34;4930375;29;20037;-80
2024/02/21 08:10:09;;;;;;;6.38;3.92;;;;;;;8.51;62.80;97218.06;4919443;29;20528;-80
2024/02/21 08:12:37;;;;;;;7.43;3.35;;;;;;;8.62;63.15;97223.00;4918779;29;20052;-80
2024/02/21 08:15:07;;;;;;;6.10;3.40;;;;;;;8.78;63.13;97222.28;4913256;29;20056;-81
2024/02/21 08:17:35;;;;;;;8.38;3.08;;;;;;;8.91;62.16;97206.25;4919389;29;20048;-80
2024/02/21 08:20:04;;;;;;;8.05;3.35;;;;;;;9.08;61.26;97201.94;4929506;29;20032;-79
2024/02/21 08:22:32;;;;;;;6.75;2.72;;;;;;;9.26;61.45;97196.59;4927977;29;20036;-80
2024/02/21 08:25:01;;;;;;;4.82;2.67;;;;;;;9.48;61.07;97193.41;4939833;29;20032;-80
2024/02/21 08:27:28;;;;;;;6.85;2.53;;;;;;;9.68;61.14;97187.88;4940957;29;20036;-80
2024/02/21 08:29:56;;;;;;;10.85;3.17;;;;;;;9.83;59.58;97170.63;4932755;29;20119;-80
2024/02/21 08:32:24;;;;;;;4.40;2.63;;;;;;;10.01;58.73;97167.06;4922844;29;20037;-80
2024/02/21 08:34:51;;;;;;;9.02;3.38;;;;;;;10.18;58.24;97173.88;4924597;29;20063;-80
2024/02/21 08:37:19;;;;;;;10.10;3.80;;;;;;;10.34;57.64;97161.81;4922907;29;20104;-80
2024/02/21 08:39:49;;;;;;;7.50;3.40;;;;;;;10.46;57.00;97161.31;4939244;29;20117;-80
2024/02/21 08:42:18;;;;;;;7.75;3.55;;;;;;;10.67;56.81;97166.00;4940817;29;20072;-80
2024/02/21 08:44:46;;;;;;;8.73;3.20;;;;;;;10.85;55.67;97164.94;4940897;29;20047;-80
2024/02/21 08:47:13;;;;;;;6.85;3.22;;;;;;;10.92;55.26;97171.09;4937745;29;20036;-80
2024/02/21 08:49:41;;;;;;;8.80;3.63;;;;;;;11.03;55.24;97168.13;4925281;29;20579;-81
2024/02/21 08:52:09;;;;;;;8.07;3.60;;;;;;;11.18;54.91;97168.22;4940597;29;20052;-80
2024/02/21 08:54:37;;;;;;;11.70;3.42;;;;;;;11.34;53.48;97170.72;4941013;29;20040;-80
2024/02/21 08:57:05;;;;;;;8.85;3.00;;;;;;;11.52;54.38;97162.63;4941216;29;20036;-81
2024/02/21 08:59:34;;;;;;;7.43;2.30;;;;;;;11.72;55.56;97162.16;4926659;29;20055;-80
2024/02/21 09:02:03;;;;;;;5.60;1.80;;;;;;;11.91;53.05;97166.91;4938412;29;20044;-80
2024/02/21 09:04:31;;;;;;;5.78;1.55;;;;;;;12.03;52.32;97156.06;4922277;29;20032;-80
2024/02/21 09:06:59;;;;;;;4.55;1.80;;;;;;;12.14;51.19;97150.41;4921954;29;20078;-80
2024/02/21 09:09:28;;;;;;;3.30;1.50;;;;;;;12.29;50.76;97160.91;4921666;29;20025;-80
2024/02/21 09:11:57;;;;;;;6.38;1.90;;;;;;;12.46;54.40;97158.91;4922170;29;20037;-80
2024/02/21 09:14:25;;;;;;;5.40;1.52;;;;;;;12.59;51.90;97151.22;4921978;29;20033;-80
2024/02/21 09:16:55;;;;;;;3.63;1.42;;;;;;;12.64;49.10;97148.91;4936975;29;20048;-80
2024/02/21 09:19:24;;;;;;;5.90;1.77;;;;;;;12.67;53.77;97148.53;4941169;29;20040;-81
2024/02/21 09:21:52;;;;;;;3.20;1.30;;;;;;;12.78;54.31;97150.69;4939600;29;20044;-80
2024/02/21 09:24:19;;;;;;;5.43;1.42;;;;;;;12.90;53.88;97156.28;4926595;29;20065;-81
2024/02/21 09:26:47;;;;;;;4.55;1.55;;;;;;;12.95;50.42;97142.66;4924910;29;20059;-79
2024/02/21 09:29:16;;;;;;;4.50;1.25;;;;;;;13.00;51.56;97140.28;4931696;29;20037;-81
2024/02/21 09:31:47;;;;;;;6.03;1.73;;;;;;;13.04;49.02;97141.53;4933764;29;20036;-82
2024/02/21 09:34:21;;;;;;;2.83;1.67;;;;;;;13.13;51.65;97137.00;4928305;29;20036;-80
2024/02/21 09:36:49;;;;;;;3.78;1.30;;;;;;;13.19;50.60;97134.47;4923630;29;20048;-81
2024/02/21 09:39:18;;;;;;;3.80;1.30;;;;;;;13.31;52.35;97136.63;5101923;23;20067;-80
2024/02/21 09:41:55;;;;;;;6.32;2.30;;;;;;;13.31;48.11;97141.88;4921781;29;20039;-80
2024/02/21 09:44:23;;;;;;;4.97;1.40;;;;;;;13.32;50.66;97138.25;4922379;29;20036;-80
2024/02/21 09:46:56;;;;;;;4.95;2.00;;;;;;;13.31;48.13;97137.41;4937767;29;20064;-80
2024/02/21 09:49:32;;;;;;;4.95;1.58;;;;;;;13.28;50.20;97131.72;4930968;29;20036;-81
2024/02/21 09:52:03;;;;;;;6.07;1.90;;;;;;;13.24;48.06;97122.63;4938586;29;20043;-81
2024/02/21 09:54:31;;;;;;;6.63;2.22;;;;;;;13.18;48.43;97119.75;4944308;29;20060;-80
2024/02/21 09:57:00;;;;;;;8.02;2.28;;;;;;;13.22;51.21;97119.38;4944574;29;20062;-81
2024/02/21 09:59:29;;;;;;;5.47;1.90;;;;;;;13.24;52.03;97114.75;4943944;29;20035;-79
2024/02/21 10:01:59;;;;;;;5.70;2.15;;;;;;;13.23;51.50;97111.34;4944210;29;20029;-81
2024/02/21 10:04:32;;;;;;;9.68;2.35;;;;;;;13.26;52.20;97110.16;4925882;29;20068;-80
2024/02/21 10:07:00;;;;;;;2.88;1.42;;;;;;;13.27;49.99;97115.22;4924645;29;20053;-80
2024/02/21 10:09:29;;;;;;;5.63;2.08;;;;;;;13.26;50.57;97108.34;4905566;29;20059;-80
2024/02/21 10:12:08;;;;;;;4.07;1.75;;;;;;;13.23;50.22;97110.50;4940123;29;20039;-80
2024/02/21 10:14:36;;;;;;;4.53;1.80;;;;;;;13.22;48.57;97104.47;4943551;29;20104;-80
2024/02/21 10:17:09;;;;;;;5.25;2.00;;;;;;;13.25;50.10;97103.25;4905419;29;20069;-81
2024/02/21 10:19:40;;;;;;;5.32;1.90;;;;;;;13.31;49.03;97099.94;4905852;29;20044;-80
2024/02/21 10:22:09;;;;;;;3.70;1.67;;;;;;;13.40;49.40;97093.56;4923179;29;20067;-80
2024/02/21 10:24:40;;;;;;;5.50;2.08;;;;;;;13.46;50.90;97095.44;4923611;29;20039;-81
2024/02/21 10:27:11;;;;;;;5.60;1.83;;;;;;;13.46;48.75;97086.78;4924587;29;20040;-81
2024/02/21 10:29:41;;;;;;;4.30;1.58;;;;;;;13.47;49.09;97083.16;4934729;29;20120;-80
2024/02/21 10:32:10;;;;;;;5.57;1.70;;;;;;;13.50;47.72;97088.84;4927591;29;20100;-80
2024/02/21 10:34:41;;;;;;;3.15;1.30;;;;;;;13.54;47.46;97079.59;4925128;29;20056;-81
2024/02/21 10:37:11;;;;;;;5.30;1.73;;;;;;;13.56;47.64;97077.59;4924875;29;20053;-81
2024/02/21 10:39:40;;;;;;;7.82;2.20;;;;;;;13.67;47.83;97078.91;4924449;29;20049;-81
2024/02/21 10:42:11;;;;;;;5.40;1.42;;;;;;;13.76;46.28;97084.81;4938522;29;20040;-81
2024/02/21 10:44:41;;;;;;;4.18;1.48;;;;;;;13.78;45.03;97074.97;4931037;29;20053;-81
2024/02/21 10:47:10;;;;;;;5.57;1.48;;;;;;;13.82;46.34;97076.22;4928385;29;20041;-81
2024/02/21 10:49:44;;;;;;;4.85;1.67;;;;;;;13.92;48.46;97078.47;4933494;29;20071;-79
2024/02/21 10:52:16;;;;;;;4.05;1.30;;;;;;;14.04;47.75;97063.00;4919833;29;20075;-81
2024/02/21 10:54:50;;;;;;;4.88;1.67;;;;;;;14.14;48.52;97055.63;4924261;29;20095;-81
2024/02/21 10:57:18;;;;;;;2.95;1.35;;;;;;;14.26;48.06;97064.59;4923058;29;20072;-81
2024/02/21 10:59:46;;;;;;;2.72;1.30;;;;;;;14.36;47.31;97057.16;4923772;29;20047;-80
2024/02/21 11:02:14;;;;;;;4.60;1.23;;;;;;;14.42;44.02;97045.06;4925486;29;20032;-81
2024/02/21 11:04:45;;;;;;;5.47;1.40;;;;;;;14.43;43.37;97039.63;4925720;29;20084;-81
2024/02/21 11:07:15;;;;;;;4.03;1.50;;;;;;;14.52;43.44;97042.06;4924051;29;20045;-81
2024/02/21 11:10:00;;;;;;;5.43;1.40;;;;;;;14.55;43.04;97031.22;4937302;29;20040;-80
2024/02/21 11:12:28;;;;;;;3.53;1.58;;;;;;;14.56;42.57;97022.34;4926285;29;20051;-81
2024/02/21 11:15:05;;;;;;;3.53;1.58;;;;;;;14.60;45.27;97018.31;4911480;29;20063;-79
2024/02/21 11:17:33;;;;;;;4.10;1.38;;;;;;;14.67;42.45;97011.28;4892259;29;20055;-81
2024/02/21 11:20:13;;;;;;;4.82;1.40;;;;;;;14.77;41.24;97005.66;4899491;29;20036;-80
2024/02/21 11:22:42;;;;;;;;;;;;;;;14.77;42.85;96998.56;4904090;29;20053;-80
2024/02/21 11:25:11;;;;;;;4.18;1.25;;;;;;;14.76;41.45;96994.34;4924647;29;19927;-81
2024/02/21 11:27:39;;;;;;;5.78;1.67;;;;;;;14.70;41.57;96984.63;4925050;29;20037;-81
2024/02/21 11:30:14;;;;;;;2.90;1.15;;;;;;;14.77;43.02;96985.44;4918931;29;20168;-80
2024/02/21 11:32:41;;;;;;;4.50;1.52;;;;;;;14.92;46.23;96973.97;4934613;29;20053;-82
2024/02/21 11:35:21;;;;;;;3.35;1.13;;;;;;;15.11;44.42;96973.19;4927486;29;20099;-82
2024/02/21 11:37:49;;;;;;;2.83;1.20;;;;;;;15.25;42.01;96966.91;4922702;29;20056;-83
2024/02/21 11:45:47;;;;;;;2.40;1.30;;;;;;;15.50;42.89;96941.81;5566544;23;20052;-80
2024/02/21 11:48:15;;;;;;;2.50;1.33;;;;;;;15.55;42.30;96940.22;4899872;29;20143;-79
2024/02/21 11:50:54;;;;;;;4.55;1.20;;;;;;;15.55;40.52;96932.31;4908843;23;20052;-78
2024/02/21 11:53:22;;;;;;;2.67;1.00;;;;;;;15.54;43.99;96933.31;4881063;29;20057;-76